Time;durP1;ratioP1;P1;durP2;ratioP2;P2;SDS_P1;SDS_P2;PMS_P1;PMS_P2;Temp;Humidity;BMP_temperature;BMP_pressure;BME280_temperature;BME280_humidity;BME280_pressure;Samples;Min_cycle;Max_cycle;Signal;HPM_P1;HPM_P2
2022/10/26 00:02:14;;;;;;;11.30;9.47;;;8.80;99.90;;;;;;5091172;28;20200;-47
2022/10/26 00:04:39;;;;;;;13.63;9.93;;;8.80;99.90;;;;;;5089316;28;20205;-49
2022/10/26 00:07:05;;;;;;;11.77;9.73;;;8.80;99.90;;;;;;5090613;28;20220;-48
2022/10/26 00:09:31;;;;;;;12.20;10.00;;;8.80;99.90;;;;;;5090668;28;20216;-45
2022/10/26 00:11:56;;;;;;;11.10;9.90;;;8.80;99.90;;;;;;5089773;28;20221;-47
2022/10/26 00:14:22;;;;;;;15.13;9.80;;;8.80;99.90;;;;;;5090910;28;20200;-49
2022/10/26 00:16:48;;;;;;;12.47;9.53;;;8.80;99.90;;;;;;5090721;28;20196;-49
2022/10/26 00:19:13;;;;;;;12.47;9.90;;;8.80;99.90;;;;;;5087854;28;20430;-45
2022/10/26 00:21:39;;;;;;;12.10;9.60;;;8.80;99.90;;;;;;5091158;28;20228;-50
2022/10/26 00:24:05;;;;;;;11.50;9.10;;;8.70;99.90;;;;;;5090097;28;20203;-51
2022/10/26 00:26:30;;;;;;;18.30;10.03;;;8.80;99.90;;;;;;5090661;28;20579;-45
2022/10/26 00:28:57;;;;;;;14.03;8.80;;;8.80;99.90;;;;;;5090542;28;20197;-45
2022/10/26 00:31:23;;;;;;;15.80;9.70;;;8.70;99.90;;;;;;5089761;28;20212;-45
2022/10/26 00:33:53;;;;;;;14.53;9.40;;;8.70;99.90;;;;;;5087456;28;20470;-49
2022/10/26 00:36:20;;;;;;;14.10;10.87;;;8.70;99.90;;;;;;5086216;28;20930;-46
2022/10/26 00:38:50;;;;;;;12.60;10.00;;;8.70;99.90;;;;;;5089627;28;20443;-47
2022/10/26 00:41:18;;;;;;;13.67;10.20;;;8.70;99.90;;;;;;5090521;28;20438;-45
2022/10/26 00:43:44;;;;;;;11.87;10.03;;;8.60;99.90;;;;;;5089674;28;20440;-45
2022/10/26 00:46:15;;;;;;;12.53;9.70;;;8.60;99.90;;;;;;5090638;28;20495;-49
2022/10/26 00:48:48;;;;;;;15.13;9.33;;;8.60;99.90;;;;;;5089330;28;20478;-45
2022/10/26 00:51:38;;;;;;;14.23;8.90;;;8.60;99.90;;;;;;5070388;28;20443;-45
2022/10/26 00:54:10;;;;;;;12.53;9.80;;;8.50;99.90;;;;;;5088360;28;20450;-47
2022/10/26 00:56:35;;;;;;;14.87;9.93;;;8.60;99.90;;;;;;5090391;28;20438;-45
2022/10/26 00:59:05;;;;;;;12.93;9.77;;;8.60;99.90;;;;;;5088766;28;20430;-49
2022/10/26 01:01:34;;;;;;;12.93;9.53;;;8.50;99.90;;;;;;5089396;28;20277;-47
2022/10/26 01:04:00;;;;;;;11.30;9.93;;;8.50;99.90;;;;;;5088803;28;20438;-47
2022/10/26 01:06:29;;;;;;;13.37;9.83;;;8.50;99.90;;;;;;5090176;28;21305;-46
2022/10/26 01:08:54;;;;;;;12.87;10.07;;;8.50;99.90;;;;;;5089258;28;20184;-47
2022/10/26 01:11:20;;;;;;;14.93;11.00;;;8.50;99.90;;;;;;5071934;28;21374;-47
2022/10/26 01:13:47;;;;;;;12.20;9.53;;;8.50;99.90;;;;;;5089654;28;20216;-45
2022/10/26 01:16:41;;;;;;;12.90;9.90;;;8.50;99.90;;;;;;5081703;28;20512;-45
2022/10/26 01:19:22;;;;;;;10.90;9.80;;;8.50;99.90;;;;;;5087825;28;20928;-49
2022/10/26 01:22:00;;;;;;;11.43;9.77;;;8.50;99.90;;;;;;5084113;28;20434;-51
2022/10/26 01:24:46;;;;;;;12.77;10.33;;;8.40;99.90;;;;;;5080570;28;20952;-49
2022/10/26 01:27:34;;;;;;;16.73;9.93;;;8.40;99.90;;;;;;5089203;28;20446;-47
2022/10/26 01:30:13;;;;;;;13.97;10.00;;;8.40;99.90;;;;;;5088737;28;20473;-45
2022/10/26 01:32:45;;;;;;;12.00;10.03;;;8.40;99.90;;;;;;5088890;28;20470;-45
2022/10/26 01:35:33;;;;;;;10.63;9.00;;;8.30;99.90;;;;;;5083027;28;20503;-46
2022/10/26 01:38:16;;;;;;;10.30;9.20;;;8.30;99.90;;;;;;5089547;28;20435;-46
2022/10/26 01:40:53;;;;;;;10.80;9.03;;;8.30;99.90;;;;;;5085732;28;20517;-48
2022/10/26 01:43:19;;;;;;;15.60;9.90;;;8.30;99.90;;;;;;5086149;28;20449;-46
2022/10/26 01:45:47;;;;;;;13.90;10.10;;;8.30;99.90;;;;;;5088003;28;20481;-48
2022/10/26 01:48:17;;;;;;;11.00;9.80;;;8.20;99.90;;;;;;5089090;28;20444;-46
2022/10/26 01:50:46;;;;;;;12.57;10.37;;;8.20;99.90;;;;;;5069795;28;20441;-48
2022/10/26 01:53:14;;;;;;;13.63;10.87;;;8.20;99.90;;;;;;5089001;28;21033;-45
2022/10/26 01:55:51;;;;;;;14.20;11.00;;;8.20;99.90;;;;;;5087784;28;20441;-45
2022/10/26 01:58:44;;;;;;;14.53;10.13;;;8.20;99.90;;;;;;5084475;28;21000;-52
2022/10/26 02:01:18;;;;;;;17.10;11.90;;;8.20;99.90;;;;;;5085614;28;20462;-45
2022/10/26 02:03:53;;;;;;;13.23;10.50;;;8.20;99.90;;;;;;5088490;28;20513;-46
2022/10/26 02:06:35;;;;;;;13.03;10.47;;;8.30;99.90;;;;;;5082548;28;20465;-48
2022/10/26 02:09:01;;;;;;;15.03;12.23;;;8.20;99.90;;;;;;5087696;28;20434;-46
2022/10/26 02:11:38;;;;;;;14.03;11.00;;;8.20;99.90;;;;;;5089036;28;20511;-46
2022/10/26 02:14:45;;;;;;;14.60;11.13;;;8.20;99.90;;;;;;5088828;28;20183;-49
2022/10/26 02:17:17;;;;;;;13.23;10.40;;;8.20;99.90;;;;;;5036367;28;20537;-49
2022/10/26 02:20:02;;;;;;;16.17;11.30;;;8.20;99.90;;;;;;5084439;28;20436;-44
2022/10/26 02:22:42;;;;;;;15.23;11.30;;;8.20;99.90;;;;;;5088871;28;20422;-45
2022/10/26 02:25:18;;;;;;;16.20;10.90;;;8.20;99.90;;;;;;5086676;28;20434;-45
2022/10/26 02:27:49;;;;;;;15.70;10.87;;;8.20;99.90;;;;;;5088823;28;20430;-45
2022/10/26 02:30:14;;;;;;;13.10;11.00;;;8.10;99.90;;;;;;5087016;28;20514;-45
2022/10/26 02:32:46;;;;;;;14.00;10.47;;;8.10;99.90;;;;;;5088139;28;20558;-47
2022/10/26 02:35:14;;;;;;;15.10;11.43;;;8.00;99.90;;;;;;5088683;28;20429;-48
2022/10/26 02:37:41;;;;;;;13.00;10.80;;;8.00;99.90;;;;;;5087553;28;20934;-45
2022/10/26 02:40:13;;;;;;;14.70;11.60;;;8.00;99.90;;;;;;5087107;28;20431;-45
2022/10/26 02:42:42;;;;;;;17.43;12.03;;;8.10;99.90;;;;;;5088684;28;20387;-46
2022/10/26 02:45:13;;;;;;;16.00;12.07;;;8.00;99.90;;;;;;5088059;28;20544;-44
2022/10/26 02:47:39;;;;;;;14.10;11.43;;;8.00;99.90;;;;;;5088065;28;20839;-45
2022/10/26 02:50:05;;;;;;;17.83;11.90;;;8.00;99.90;;;;;;5086688;28;20445;-47
2022/10/26 02:52:44;;;;;;;15.57;11.43;;;8.00;99.90;;;;;;5085405;28;20211;-45
2022/10/26 02:55:26;;;;;;;14.80;11.40;;;8.00;99.90;;;;;;5079301;28;20436;-48
2022/10/26 02:57:57;;;;;;;15.60;11.37;;;8.00;99.90;;;;;;5094088;28;20448;-46
2022/10/26 03:00:23;;;;;;;16.10;12.10;;;8.00;99.90;;;;;;5095876;28;20426;-48
2022/10/26 03:03:01;;;;;;;18.07;12.27;;;8.00;99.90;;;;;;5091592;28;21009;-45
2022/10/26 03:05:29;;;;;;;16.17;11.43;;;8.00;99.90;;;;;;5090844;28;20200;-47
2022/10/26 03:07:55;;;;;;;13.97;11.70;;;8.00;99.90;;;;;;5091438;28;20445;-46
2022/10/26 03:10:21;;;;;;;16.37;12.17;;;7.90;99.90;;;;;;5091642;28;20470;-45
2022/10/26 03:12:47;;;;;;;16.20;12.00;;;7.90;99.90;;;;;;5091933;28;20461;-47
2022/10/26 03:15:14;;;;;;;15.67;12.73;;;7.90;99.90;;;;;;5089853;28;20433;-48
2022/10/26 03:17:39;;;;;;;17.53;12.23;;;7.90;99.90;;;;;;5092139;28;20504;-46
2022/10/26 03:20:06;;;;;;;15.03;11.80;;;7.90;99.90;;;;;;5089296;28;21009;-46
2022/10/26 03:22:31;;;;;;;17.20;11.50;;;7.90;99.90;;;;;;5091357;28;20285;-45
2022/10/26 03:24:57;;;;;;;14.20;11.73;;;7.90;99.90;;;;;;5091118;28;20488;-45
2022/10/26 03:27:22;;;;;;;17.57;12.47;;;7.90;99.90;;;;;;5090914;28;20592;-47
2022/10/26 03:29:48;;;;;;;15.80;12.73;;;7.90;99.90;;;;;;5089139;28;20210;-43
2022/10/26 03:32:13;;;;;;;15.53;11.93;;;7.90;99.90;;;;;;5091293;28;20274;-44
2022/10/26 03:34:39;;;;;;;13.93;11.73;;;7.90;99.90;;;;;;5090348;28;20184;-46
2022/10/26 03:37:05;;;;;;;16.50;12.53;;;7.90;99.90;;;;;;5091026;28;20249;-45
2022/10/26 03:39:30;;;;;;;18.10;12.20;;;7.90;99.90;;;;;;5090370;28;20278;-45
2022/10/26 03:41:56;;;;;;;12.47;11.17;;;7.90;99.90;;;;;;5091061;28;20184;-44
2022/10/26 03:44:21;;;;;;;18.03;12.23;;;7.90;99.90;;;;;;5090866;28;20573;-48
2022/10/26 03:46:47;;;;;;;14.37;12.80;;;7.90;99.90;;;;;;5089074;28;20357;-47
2022/10/26 03:49:13;;;;;;;14.50;12.57;;;7.90;99.90;;;;;;5090388;28;20962;-48
2022/10/26 03:51:38;;;;;;;14.83;11.90;;;7.90;99.90;;;;;;5083844;28;20270;-45
2022/10/26 03:54:04;;;;;;;15.87;11.63;;;7.80;99.90;;;;;;5090824;28;20267;-49
2022/10/26 03:56:29;;;;;;;15.30;12.50;;;7.80;99.90;;;;;;5091263;28;20185;-46
2022/10/26 03:58:55;;;;;;;14.50;12.27;;;7.80;99.90;;;;;;5089066;28;21096;-46
2022/10/26 04:01:21;;;;;;;14.97;11.63;;;7.80;99.90;;;;;;5089277;28;20246;-46
2022/10/26 04:03:46;;;;;;;16.50;12.17;;;7.80;99.90;;;;;;5090376;28;20657;-48
2022/10/26 04:06:12;;;;;;;14.40;11.87;;;7.70;99.90;;;;;;5090053;28;20458;-45
2022/10/26 04:08:38;;;;;;;13.60;11.50;;;7.70;99.90;;;;;;5090083;28;20184;-44
2022/10/26 04:11:04;;;;;;;13.60;11.90;;;7.80;99.90;;;;;;5089769;28;20437;-46
2022/10/26 04:13:29;;;;;;;14.40;12.30;;;7.70;99.90;;;;;;5088817;28;20265;-45
2022/10/26 04:15:55;;;;;;;18.27;13.73;;;7.70;99.90;;;;;;5090179;28;20187;-45
2022/10/26 04:18:20;;;;;;;18.30;13.23;;;7.70;99.90;;;;;;5089028;28;20572;-46
2022/10/26 04:20:46;;;;;;;20.33;13.40;;;7.60;99.90;;;;;;5088172;28;20654;-44
2022/10/26 04:23:14;;;;;;;16.03;12.70;;;7.60;99.90;;;;;;5090022;28;20810;-47
2022/10/26 04:25:41;;;;;;;15.27;13.07;;;7.60;99.90;;;;;;5084026;28;20200;-45
2022/10/26 04:28:08;;;;;;;16.83;13.37;;;7.60;99.90;;;;;;5089872;28;20434;-44
2022/10/26 04:30:34;;;;;;;20.40;13.57;;;7.60;99.90;;;;;;5089326;28;20433;-44
2022/10/26 04:33:00;;;;;;;18.67;14.00;;;7.60;99.90;;;;;;5088595;28;20461;-45
2022/10/26 04:35:26;;;;;;;20.37;13.27;;;7.60;99.90;;;;;;5088912;28;20456;-44
2022/10/26 04:37:57;;;;;;;17.10;12.53;;;7.60;99.90;;;;;;5089961;28;20184;-43
2022/10/26 04:40:23;;;;;;;19.13;11.83;;;7.50;99.90;;;;;;5089210;28;20426;-53
2022/10/26 04:42:48;;;;;;;14.23;12.27;;;7.50;99.90;;;;;;5090437;28;20474;-44
2022/10/26 04:45:15;;;;;;;15.30;13.30;;;7.60;99.90;;;;;;5089659;28;20219;-44
2022/10/26 04:47:41;;;;;;;18.53;12.83;;;7.50;99.90;;;;;;5067446;28;20253;-43
2022/10/26 04:50:08;;;;;;;19.67;12.87;;;7.50;99.90;;;;;;5060822;28;20446;-43
2022/10/26 04:52:34;;;;;;;20.07;15.00;;;7.50;99.90;;;;;;5086398;28;20976;-44
2022/10/26 04:55:00;;;;;;;23.87;15.30;;;7.50;99.90;;;;;;5086147;28;20848;-45
2022/10/26 04:57:25;;;;;;;19.43;13.20;;;7.50;99.90;;;;;;5089392;28;20444;-49
2022/10/26 04:59:51;;;;;;;17.57;13.10;;;7.50;99.90;;;;;;5087372;28;20432;-48
2022/10/26 05:02:16;;;;;;;15.87;12.23;;;7.50;99.90;;;;;;5088908;28;20567;-46
2022/10/26 05:04:42;;;;;;;19.37;13.37;;;7.50;99.90;;;;;;5089426;28;20662;-43
2022/10/26 05:07:08;;;;;;;16.40;13.17;;;7.50;99.90;;;;;;5088922;28;20216;-46
2022/10/26 05:09:33;;;;;;;16.73;12.80;;;7.50;99.90;;;;;;5088722;28;20622;-44
2022/10/26 05:11:59;;;;;;;16.00;12.83;;;7.50;99.90;;;;;;5069520;28;20290;-47
2022/10/26 05:14:24;;;;;;;16.50;12.67;;;7.40;99.90;;;;;;5087176;28;20249;-44
2022/10/26 05:16:50;;;;;;;16.30;13.13;;;7.50;99.90;;;;;;5088016;28;20206;-48
2022/10/26 05:19:16;;;;;;;16.23;12.40;;;7.50;99.90;;;;;;5086687;28;20194;-49
2022/10/26 05:21:41;;;;;;;15.70;12.80;;;7.40;99.90;;;;;;5085779;28;20434;-48
2022/10/26 05:24:07;;;;;;;17.40;12.63;;;7.40;99.90;;;;;;5098661;28;20195;-45
2022/10/26 05:26:32;;;;;;;17.57;13.60;;;7.40;99.90;;;;;;5086873;28;20660;-49
2022/10/26 05:28:58;;;;;;;16.63;13.60;;;7.40;99.90;;;;;;5088328;28;20195;-43
2022/10/26 05:31:24;;;;;;;19.90;14.17;;;7.30;99.90;;;;;;5088169;28;20231;-45
2022/10/26 05:33:50;;;;;;;19.57;15.10;;;7.30;99.90;;;;;;5071586;28;20550;-44
2022/10/26 05:36:18;;;;;;;17.10;13.33;;;7.40;99.90;;;;;;5087496;28;20549;-45
2022/10/26 05:38:44;;;;;;;18.70;13.77;;;7.30;99.90;;;;;;5085934;28;20895;-46
2022/10/26 05:41:09;;;;;;;19.00;14.23;;;7.40;99.90;;;;;;5088304;28;20724;-45
2022/10/26 05:43:35;;;;;;;21.47;14.63;;;7.30;99.90;;;;;;5088271;28;20701;-45
2022/10/26 05:46:01;;;;;;;18.17;14.30;;;7.40;99.90;;;;;;5088852;28;20260;-45
2022/10/26 05:48:26;;;;;;;18.97;14.73;;;7.40;99.90;;;;;;5089107;28;20187;-45
2022/10/26 05:50:52;;;;;;;18.20;13.67;;;7.40;99.90;;;;;;5087757;28;20270;-45
2022/10/26 05:53:17;;;;;;;19.10;14.30;;;7.50;99.90;;;;;;5087678;28;20203;-47
2022/10/26 05:55:43;;;;;;;20.63;14.40;;;7.50;99.90;;;;;;5087607;28;20657;-46
2022/10/26 05:58:13;;;;;;;19.37;13.83;;;7.40;99.90;;;;;;5088030;28;20288;-45
2022/10/26 06:01:06;;;;;;;16.17;13.67;;;7.50;99.90;;;;;;5088143;28;20482;-44
2022/10/26 06:04:01;;;;;;;16.23;13.30;;;7.50;99.90;;;;;;5085503;28;20873;-44
2022/10/26 06:06:31;;;;;;;17.93;13.57;;;7.50;99.90;;;;;;5088539;28;20507;-47
2022/10/26 06:08:57;;;;;;;18.87;14.90;;;7.50;99.90;;;;;;5087817;28;20450;-45
2022/10/26 06:11:23;;;;;;;19.27;14.53;;;7.60;99.90;;;;;;5085858;28;20473;-46
2022/10/26 06:13:49;;;;;;;21.37;15.97;;;7.60;99.90;;;;;;5087845;28;20714;-45
2022/10/26 06:16:34;;;;;;;19.53;15.37;;;7.60;99.90;;;;;;5088599;28;20384;-48
2022/10/26 06:19:29;;;;;;;18.90;14.40;;;7.70;99.90;;;;;;5087928;28;20437;-48
2022/10/26 06:22:25;;;;;;;21.60;16.50;;;7.70;99.90;;;;;;5088537;28;20901;-46
2022/10/26 06:25:11;;;;;;;22.73;15.90;;;7.70;99.90;;;;;;5070201;28;20425;-45
2022/10/26 06:27:55;;;;;;;20.47;14.10;;;7.70;99.90;;;;;;5088535;28;20433;-46
2022/10/26 06:30:22;;;;;;;19.50;14.60;;;7.80;99.90;;;;;;5088740;28;20796;-45
2022/10/26 06:32:49;;;;;;;22.27;15.00;;;7.80;99.90;;;;;;5087134;28;20462;-48
2022/10/26 06:35:40;;;;;;;22.80;15.43;;;7.90;99.90;;;;;;5088515;28;20419;-46
2022/10/26 06:38:18;;;;;;;17.77;14.60;;;7.90;99.90;;;;;;5088255;28;20493;-47
2022/10/26 06:40:48;;;;;;;20.30;15.47;;;7.90;99.90;;;;;;5088493;28;20421;-45
2022/10/26 06:43:28;;;;;;;21.17;14.97;;;8.00;99.90;;;;;;5088324;28;20432;-49
2022/10/26 06:46:04;;;;;;;25.13;15.17;;;8.10;99.90;;;;;;5088237;28;20498;-47
2022/10/26 06:48:36;;;;;;;19.40;14.60;;;8.00;99.90;;;;;;5086621;28;20448;-44
2022/10/26 06:51:02;;;;;;;18.67;14.90;;;8.10;99.90;;;;;;5087677;28;20479;-47
2022/10/26 06:53:37;;;;;;;20.73;15.90;;;8.10;99.90;;;;;;5088341;28;21048;-48
2022/10/26 06:56:03;;;;;;;21.37;16.37;;;8.10;99.90;;;;;;5088109;28;20245;-45
2022/10/26 06:58:35;;;;;;;19.37;15.80;;;8.20;99.90;;;;;;5088141;28;20425;-46
2022/10/26 07:01:01;;;;;;;18.60;15.77;;;8.30;99.90;;;;;;5085562;28;20511;-47
2022/10/26 07:03:26;;;;;;;21.47;15.70;;;8.40;99.90;;;;;;5082685;28;20541;-45
2022/10/26 07:05:52;;;;;;;21.07;15.60;;;8.40;99.90;;;;;;5088522;28;20549;-49
2022/10/26 07:08:18;;;;;;;21.10;15.77;;;8.50;99.90;;;;;;5088078;28;20185;-45
2022/10/26 07:10:43;;;;;;;18.50;15.10;;;8.60;99.90;;;;;;5088208;28;20219;-48
2022/10/26 07:13:10;;;;;;;18.77;14.70;;;8.70;99.90;;;;;;5087329;28;20621;-45
2022/10/26 07:15:37;;;;;;;20.30;15.00;;;8.70;99.90;;;;;;5087009;28;20188;-46
2022/10/26 07:18:04;;;;;;;22.00;15.63;;;8.80;99.90;;;;;;5087763;28;20854;-44
2022/10/26 07:20:31;;;;;;;20.97;15.27;;;8.90;99.90;;;;;;5088265;28;20411;-44
2022/10/26 07:22:57;;;;;;;20.70;15.57;;;9.10;99.90;;;;;;5087916;28;20420;-46
2022/10/26 07:25:24;;;;;;;19.60;14.83;;;9.20;99.90;;;;;;5087907;28;20483;-44
2022/10/26 07:27:50;;;;;;;19.17;15.10;;;9.30;99.90;;;;;;5088060;28;20517;-45
2022/10/26 07:30:16;;;;;;;19.00;13.50;;;9.40;99.90;;;;;;5088131;28;20530;-46
2022/10/26 07:32:42;;;;;;;19.90;14.77;;;9.50;99.90;;;;;;5087706;28;20449;-47
2022/10/26 07:35:08;;;;;;;21.70;14.60;;;9.60;99.90;;;;;;5088000;28;20422;-44
2022/10/26 07:37:33;;;;;;;16.13;14.00;;;9.80;99.90;;;;;;5087736;28;20415;-49
2022/10/26 07:39:59;;;;;;;17.70;14.70;;;10.00;99.90;;;;;;5087925;28;20219;-46
2022/10/26 07:42:24;;;;;;;20.17;15.53;;;10.20;99.90;;;;;;5086755;28;20263;-47
2022/10/26 07:44:50;;;;;;;19.07;13.93;;;10.50;99.90;;;;;;5091118;28;20193;-49
2022/10/26 07:47:16;;;;;;;18.33;12.20;;;10.70;99.90;;;;;;5091446;28;20721;-44
2022/10/26 07:49:41;;;;;;;15.83;13.20;;;10.90;99.90;;;;;;5091594;28;20233;-45
2022/10/26 07:52:08;;;;;;;13.50;11.80;;;11.30;99.90;;;;;;5091255;28;20446;-47
2022/10/26 07:54:34;;;;;;;14.23;11.13;;;11.60;99.90;;;;;;5091566;28;20195;-48
2022/10/26 07:56:59;;;;;;;11.53;10.00;;;11.70;99.90;;;;;;5091485;28;20965;-46
2022/10/26 07:59:25;;;;;;;13.33;9.70;;;11.90;99.90;;;;;;5091389;28;20200;-46
2022/10/26 08:01:51;;;;;;;10.03;8.80;;;12.00;99.90;;;;;;5090169;28;20199;-46
2022/10/26 08:04:17;;;;;;;10.63;9.53;;;12.10;99.90;;;;;;5088389;28;20523;-45
2022/10/26 08:06:43;;;;;;;11.30;9.90;;;12.10;99.90;;;;;;5089988;28;20478;-47
2022/10/26 08:09:08;;;;;;;12.53;10.50;;;12.20;99.90;;;;;;5072729;28;20726;-44
2022/10/26 08:11:35;;;;;;;10.43;9.33;;;12.40;99.90;;;;;;5090908;28;20548;-45
2022/10/26 08:14:02;;;;;;;10.70;9.60;;;12.60;99.90;;;;;;5090906;28;20531;-45
2022/10/26 08:16:27;;;;;;;11.20;9.40;;;12.80;99.90;;;;;;5090837;28;20428;-45
2022/10/26 08:18:53;;;;;;;11.83;9.10;;;12.80;99.90;;;;;;5090796;28;20400;-48
2022/10/26 08:21:18;;;;;;;10.80;9.70;;;12.90;99.90;;;;;;5091341;28;20186;-46
2022/10/26 08:23:44;;;;;;;10.70;9.23;;;12.80;99.90;;;;;;5090581;28;20186;-44
2022/10/26 08:26:13;;;;;;;10.17;9.17;;;12.90;99.90;;;;;;5090828;28;20271;-47
2022/10/26 08:28:39;;;;;;;9.90;8.87;;;13.20;99.90;;;;;;5090695;28;20657;-50
2022/10/26 08:31:05;;;;;;;8.93;8.03;;;13.90;99.90;;;;;;5089524;28;20521;-45
2022/10/26 08:33:31;;;;;;;9.20;8.30;;;14.20;99.90;;;;;;5090252;28;20507;-47
2022/10/26 08:35:58;;;;;;;9.43;8.43;;;14.70;99.90;;;;;;5090438;28;20905;-46
2022/10/26 08:38:24;;;;;;;13.43;7.87;;;14.90;99.90;;;;;;5090637;28;20667;-49
2022/10/26 08:40:52;;;;;;;10.60;7.73;;;14.70;99.90;;;;;;5090699;28;20411;-43
2022/10/26 08:43:38;;;;;;;9.43;8.43;;;14.90;99.90;;;;;;5090460;28;20610;-46
2022/10/26 08:46:09;;;;;;;9.30;8.40;;;15.30;99.90;;;;;;5090323;28;20421;-48
2022/10/26 08:48:39;;;;;;;8.87;7.97;;;15.80;99.90;;;;;;5071712;28;20425;-47
2022/10/26 08:51:19;;;;;;;11.77;8.10;;;16.20;99.90;;;;;;5072012;28;20532;-50
2022/10/26 08:53:59;;;;;;;9.13;8.17;;;16.00;99.90;;;;;;5090093;28;20442;-46
2022/10/26 08:56:26;;;;;;;9.27;8.23;;;16.70;99.90;;;;;;5088087;28;21003;-47
2022/10/26 08:59:04;;;;;;;9.13;8.10;;;17.10;99.90;;;;;;5089994;28;20415;-50
2022/10/26 09:01:30;;;;;;;8.30;7.50;;;17.60;99.90;;;;;;5090070;28;20438;-49
2022/10/26 09:03:57;;;;;;;8.57;7.80;;;18.10;99.90;;;;;;5089812;28;20419;-46
2022/10/26 09:06:35;;;;;;;9.03;7.93;;;18.60;99.90;;;;;;5089768;28;20513;-48
2022/10/26 09:09:20;;;;;;;8.83;7.97;;;18.70;99.90;;;;;;5089742;28;20413;-47
2022/10/26 09:11:52;;;;;;;8.27;7.57;;;19.60;99.60;;;;;;5089889;28;20458;-49
2022/10/26 09:14:39;;;;;;;8.67;7.80;;;20.20;96.20;;;;;;5080857;28;20407;-47
2022/10/26 09:17:04;;;;;;;8.03;7.30;;;20.70;95.60;;;;;;5089569;28;20510;-44
2022/10/26 09:19:55;;;;;;;8.50;7.70;;;21.30;92.90;;;;;;5089439;28;20844;-54
2022/10/26 09:22:37;;;;;;;9.20;8.40;;;21.60;90.30;;;;;;5089694;28;20531;-52
2022/10/26 09:25:18;;;;;;;8.90;8.10;;;22.20;88.00;;;;;;5088410;28;20434;-50
2022/10/26 09:28:05;;;;;;;8.20;7.50;;;22.50;85.30;;;;;;5089774;28;20418;-55
2022/10/26 09:30:31;;;;;;;8.53;7.83;;;23.00;83.20;;;;;;5089747;28;20419;-53
2022/10/26 09:33:01;;;;;;;8.67;7.87;;;22.70;81.20;;;;;;5089323;28;20477;-51
2022/10/26 09:35:41;;;;;;;8.70;8.00;;;23.00;81.70;;;;;;5089145;28;20430;-53
2022/10/26 09:38:28;;;;;;;8.23;7.43;;;23.40;76.60;;;;;;5089637;28;20452;-51
2022/10/26 09:41:17;;;;;;;9.80;9.00;;;22.80;76.10;;;;;;5089162;28;20415;-55
2022/10/26 09:43:54;;;;;;;9.17;8.37;;;21.00;81.10;;;;;;5075827;28;20434;-54
2022/10/26 09:46:33;;;;;;;8.93;8.13;;;20.10;89.30;;;;;;5089003;28;20450;-52
2022/10/26 09:49:04;;;;;;;10.00;9.10;;;20.50;91.80;;;;;;5089163;28;20410;-53
2022/10/26 09:51:32;;;;;;;8.57;7.77;;;20.80;89.90;;;;;;5088974;28;20410;-54
2022/10/26 09:53:59;;;;;;;9.20;8.40;;;21.40;90.00;;;;;;5087316;28;20441;-52
2022/10/26 09:56:27;;;;;;;9.00;8.20;;;22.00;85.90;;;;;;5089392;28;20422;-51
2022/10/26 09:58:58;;;;;;;9.80;8.90;;;22.20;84.20;;;;;;5088961;28;20411;-53
2022/10/26 10:01:31;;;;;;;9.00;8.20;;;22.40;83.90;;;;;;5070782;28;20801;-53
2022/10/26 10:04:12;;;;;;;8.50;7.63;;;23.50;81.40;;;;;;5089314;28;20457;-55
2022/10/26 10:06:42;;;;;;;8.80;8.10;;;23.20;77.30;;;;;;5088181;28;20470;-54
2022/10/26 10:09:09;;;;;;;9.53;8.73;;;23.20;76.90;;;;;;5088785;28;20410;-52
2022/10/26 10:11:55;;;;;;;8.60;7.90;;;23.50;76.60;;;;;;5089202;28;20920;-50
2022/10/26 10:14:51;;;;;;;9.07;8.30;;;24.00;74.80;;;;;;5077891;28;20921;-54
2022/10/26 10:17:22;;;;;;;8.50;7.70;;;24.40;71.80;;;;;;5077626;28;20423;-50
2022/10/26 10:19:48;;;;;;;8.13;7.43;;;24.70;67.60;;;;;;5088815;28;20948;-52
2022/10/26 10:22:14;;;;;;;8.03;7.30;;;24.70;66.90;;;;;;5070931;28;20467;-52
2022/10/26 10:24:41;;;;;;;7.20;6.70;;;24.90;65.90;;;;;;5086226;28;20518;-52
2022/10/26 10:27:14;;;;;;;7.40;6.83;;;25.10;66.20;;;;;;5087420;28;20202;-53
2022/10/26 10:29:45;;;;;;;7.53;6.93;;;25.20;64.00;;;;;;5083257;28;20410;-50
2022/10/26 10:32:19;;;;;;;7.00;6.40;;;25.40;62.30;;;;;;5088730;28;21044;-52
2022/10/26 10:34:46;;;;;;;7.00;6.30;;;25.60;61.50;;;;;;5088428;28;20417;-49
2022/10/26 10:37:33;;;;;;;7.43;6.77;;;26.00;60.10;;;;;;5088238;28;20527;-53
2022/10/26 10:40:14;;;;;;;7.17;6.37;;;26.60;59.60;;;;;;5088405;28;20410;-52
2022/10/26 10:42:42;;;;;;;7.23;6.60;;;27.10;55.50;;;;;;5088533;28;20430;-54
2022/10/26 10:45:18;;;;;;;6.60;6.10;;;26.90;56.90;;;;;;5088365;28;20908;-55
2022/10/26 10:48:14;;;;;;;6.13;5.67;;;26.80;55.70;;;;;;5088663;28;20904;-53
2022/10/26 10:51:01;;;;;;;5.63;5.23;;;27.10;53.50;;;;;;5088296;28;20444;-50
2022/10/26 10:53:44;;;;;;;6.50;5.97;;;26.90;54.60;;;;;;5070050;28;21033;-53
2022/10/26 10:56:27;;;;;;;6.20;5.70;;;27.30;53.50;;;;;;5087764;28;20437;-55
2022/10/26 10:59:04;;;;;;;6.93;6.33;;;27.60;53.80;;;;;;5088433;28;20442;-48
2022/10/26 11:01:45;;;;;;;6.03;5.63;;;28.00;50.80;;;;;;5088272;28;20403;-52
2022/10/26 11:04:38;;;;;;;5.10;4.70;;;27.80;50.30;;;;;;5088193;28;20398;-51
2022/10/26 11:07:06;;;;;;;5.33;5.00;;;27.70;50.30;;;;;;5088113;28;20470;-55
2022/10/26 11:09:36;;;;;;;5.53;4.90;;;28.00;48.90;;;;;;5088522;28;20907;-51
2022/10/26 11:12:14;;;;;;;5.10;4.53;;;27.70;49.60;;;;;;5088087;28;20553;-50
2022/10/26 11:14:43;;;;;;;4.70;4.40;;;27.60;49.00;;;;;;5088321;28;20421;-51
2022/10/26 11:17:25;;;;;;;4.60;4.27;;;27.50;50.20;;;;;;5088399;28;20420;-53
2022/10/26 11:20:01;;;;;;;5.67;5.17;;;27.40;49.20;;;;;;5091414;28;20883;-51
2022/10/26 11:22:33;;;;;;;4.43;4.13;;;27.50;48.90;;;;;;5092249;28;20421;-52
2022/10/26 11:25:04;;;;;;;4.50;4.20;;;27.90;48.80;;;;;;5090622;28;20553;-53
2022/10/26 11:27:45;;;;;;;5.00;4.30;;;28.10;47.10;;;;;;5091942;28;20450;-53
2022/10/26 11:30:24;;;;;;;4.70;4.30;;;28.10;46.70;;;;;;5054421;28;20423;-50
2022/10/26 11:33:02;;;;;;;4.10;3.80;;;28.70;46.10;;;;;;5086063;28;20458;-55
2022/10/26 11:35:33;;;;;;;4.60;4.27;;;28.70;46.00;;;;;;5091700;28;20467;-54
2022/10/26 11:38:39;;;;;;;4.57;4.17;;;29.00;45.20;;;;;;5091521;28;20410;-54
2022/10/26 11:41:52;;;;;;;5.13;4.73;;;29.60;45.20;;;;;;5091612;28;20775;-54
2022/10/26 11:44:36;;;;;;;4.90;4.50;;;29.70;42.60;;;;;;5068929;28;20450;-53
2022/10/26 11:47:14;;;;;;;5.40;5.00;;;29.80;41.70;;;;;;5090913;28;20517;-53
2022/10/26 11:50:00;;;;;;;5.10;4.70;;;29.70;41.70;;;;;;5091000;28;20426;-53
2022/10/26 11:52:35;;;;;;;5.77;5.27;;;29.60;41.60;;;;;;5091516;28;20466;-56
2022/10/26 11:55:03;;;;;;;5.43;5.13;;;29.60;42.50;;;;;;5091697;28;20410;-56
2022/10/26 11:57:32;;;;;;;5.80;5.30;;;29.50;42.70;;;;;;5091530;28;20419;-51
2022/10/26 12:00:11;;;;;;;4.90;4.60;;;29.90;41.40;;;;;;5091331;28;20411;-54
2022/10/26 12:02:40;;;;;;;5.73;5.33;;;29.70;41.00;;;;;;5091443;28;20419;-52
2022/10/26 12:05:14;;;;;;;5.50;5.00;;;29.80;41.60;;;;;;5091239;28;20423;-47
2022/10/26 12:07:46;;;;;;;5.70;4.37;;;30.10;40.40;;;;;;5090937;28;20480;-54
2022/10/26 12:10:33;;;;;;;5.33;4.83;;;29.70;39.80;;;;;;5090894;28;20410;-52
2022/10/26 12:13:30;;;;;;;5.33;4.93;;;29.60;41.00;;;;;;5090140;28;20466;-53
2022/10/26 12:16:10;;;;;;;6.30;5.03;;;29.40;40.40;;;;;;5091409;28;20410;-53
2022/10/26 12:18:48;;;;;;;5.67;5.27;;;29.60;41.20;;;;;;5090921;28;20459;-51
2022/10/26 12:21:14;;;;;;;6.47;5.00;;;29.70;40.80;;;;;;5090866;28;20940;-50
2022/10/26 12:24:00;;;;;;;5.57;5.27;;;29.60;41.90;;;;;;5091175;28;20419;-52
2022/10/26 12:26:25;;;;;;;5.10;4.80;;;29.20;41.30;;;;;;5090686;28;20968;-54
2022/10/26 12:29:03;;;;;;;5.23;4.83;;;29.10;40.50;;;;;;5090500;28;20422;-51
2022/10/26 12:31:31;;;;;;;4.93;4.53;;;29.30;41.10;;;;;;5090449;28;20638;-55
2022/10/26 12:33:58;;;;;;;5.10;4.70;;;29.10;40.50;;;;;;5090758;28;20411;-52
2022/10/26 12:36:46;;;;;;;4.70;4.40;;;28.10;41.30;;;;;;5090577;28;20406;-51
2022/10/26 12:39:35;;;;;;;4.90;4.37;;;28.60;42.90;;;;;;5090413;28;20418;-54
2022/10/26 12:42:06;;;;;;;4.50;4.20;;;28.50;41.50;;;;;;5079285;28;20410;-51
2022/10/26 12:44:47;;;;;;;4.87;4.57;;;27.80;42.60;;;;;;5090506;28;20414;-50
2022/10/26 12:47:28;;;;;;;5.50;5.10;;;27.60;43.90;;;;;;5090309;28;20892;-51
2022/10/26 12:49:58;;;;;;;5.53;5.23;;;27.00;43.30;;;;;;5090444;28;20410;-54
2022/10/26 12:52:31;;;;;;;5.07;4.67;;;26.60;44.90;;;;;;5090320;28;20576;-52
2022/10/26 12:55:16;;;;;;;4.50;4.20;;;26.30;46.90;;;;;;5090065;28;20414;-48
2022/10/26 12:58:06;;;;;;;5.37;4.97;;;26.10;47.30;;;;;;5071937;28;20953;-51
2022/10/26 13:00:37;;;;;;;5.67;5.00;;;26.00;48.00;;;;;;5071823;28;20840;-54
2022/10/26 13:03:36;;;;;;;5.10;4.70;;;25.40;47.90;;;;;;5090405;28;20583;-48
2022/10/26 13:06:19;;;;;;;5.57;5.17;;;25.30;50.10;;;;;;5089864;28;20478;-53